sensor_id;sensor_type;location;lat;lon;timestamp;P1;durP1;ratioP1;P2;durP2;ratioP2
26080;SDS011;13991;51.174;4.438;2022-11-15T00:00:58;53.17;;;25.53;;
26080;SDS011;13991;51.174;4.438;2022-11-15T00:04:03;60.57;;;26.57;;
26080;SDS011;13991;51.174;4.438;2022-11-15T00:10:13;56.17;;;25.07;;
26080;SDS011;13991;51.174;4.438;2022-11-15T00:12:59;52.57;;;23.87;;
26080;SDS011;13991;51.174;4.438;2022-11-15T00:15:47;61.07;;;25.17;;
26080;SDS011;13991;51.174;4.438;2022-11-15T00:19:02;52.20;;;23.40;;
26080;SDS011;13991;51.174;4.438;2022-11-15T00:22:19;49.30;;;22.67;;
26080;SDS011;13991;51.174;4.438;2022-11-15T00:25:22;61.47;;;24.97;;
26080;SDS011;13991;51.174;4.438;2022-11-15T00:29:08;52.20;;;23.57;;
26080;SDS011;13991;51.174;4.438;2022-11-15T00:36:08;51.63;;;22.47;;
26080;SDS011;13991;51.174;4.438;2022-11-15T00:39:02;47.30;;;21.73;;
26080;SDS011;13991;51.174;4.438;2022-11-15T00:42:01;49.93;;;22.80;;
26080;SDS011;13991;51.174;4.438;2022-11-15T00:45:01;45.77;;;20.23;;
26080;SDS011;13991;51.174;4.438;2022-11-15T00:48:00;48.47;;;22.17;;
26080;SDS011;13991;51.174;4.438;2022-11-15T00:51:20;42.30;;;20.90;;
26080;SDS011;13991;51.174;4.438;2022-11-15T00:54:11;39.20;;;19.57;;
26080;SDS011;13991;51.174;4.438;2022-11-15T01:01:17;44.13;;;19.93;;
26080;SDS011;13991;51.174;4.438;2022-11-15T01:04:47;37.73;;;19.63;;
26080;SDS011;13991;51.174;4.438;2022-11-15T01:11:41;40.53;;;18.33;;
26080;SDS011;13991;51.174;4.438;2022-11-15T01:21:28;37.53;;;18.20;;
26080;SDS011;13991;51.174;4.438;2022-11-15T01:27:29;36.70;;;16.80;;
26080;SDS011;13991;51.174;4.438;2022-11-15T01:30:12;35.90;;;16.80;;
26080;SDS011;13991;51.174;4.438;2022-11-15T01:33:01;40.43;;;17.53;;
26080;SDS011;13991;51.174;4.438;2022-11-15T01:35:50;34.10;;;16.50;;
26080;SDS011;13991;51.174;4.438;2022-11-15T01:38:59;33.30;;;16.17;;
26080;SDS011;13991;51.174;4.438;2022-11-15T01:42:14;32.93;;;15.47;;
26080;SDS011;13991;51.174;4.438;2022-11-15T01:45:19;36.80;;;15.80;;
26080;SDS011;13991;51.174;4.438;2022-11-15T01:54:43;27.33;;;15.13;;
26080;SDS011;13991;51.174;4.438;2022-11-15T01:57:59;30.17;;;14.63;;
26080;SDS011;13991;51.174;4.438;2022-11-15T02:00:57;38.20;;;15.60;;
26080;SDS011;13991;51.174;4.438;2022-11-15T02:04:25;37.93;;;13.77;;
26080;SDS011;13991;51.174;4.438;2022-11-15T02:10:58;25.93;;;13.47;;
26080;SDS011;13991;51.174;4.438;2022-11-15T02:41:23;27.77;;;13.73;;
26080;SDS011;13991;51.174;4.438;2022-11-15T02:44:53;32.20;;;13.83;;
26080;SDS011;13991;51.174;4.438;2022-11-15T02:48:33;29.23;;;13.03;;
26080;SDS011;13991;51.174;4.438;2022-11-15T02:55:29;28.00;;;12.23;;
26080;SDS011;13991;51.174;4.438;2022-11-15T03:02:23;30.93;;;12.53;;
26080;SDS011;13991;51.174;4.438;2022-11-15T03:12:07;31.60;;;12.10;;
26080;SDS011;13991;51.174;4.438;2022-11-15T03:25:20;34.90;;;11.93;;
26080;SDS011;13991;51.174;4.438;2022-11-15T03:29:01;29.80;;;12.00;;
26080;SDS011;13991;51.174;4.438;2022-11-15T03:31:59;32.60;;;11.97;;
26080;SDS011;13991;51.174;4.438;2022-11-15T03:35:20;29.77;;;12.37;;
26080;SDS011;13991;51.174;4.438;2022-11-15T03:48:52;22.37;;;11.17;;
26080;SDS011;13991;51.174;4.438;2022-11-15T03:55:08;27.93;;;11.10;;
26080;SDS011;13991;51.174;4.438;2022-11-15T03:58:39;26.17;;;9.83;;
26080;SDS011;13991;51.174;4.438;2022-11-15T04:08:28;28.20;;;8.83;;
26080;SDS011;13991;51.174;4.438;2022-11-15T04:18:18;20.10;;;7.40;;
26080;SDS011;13991;51.174;4.438;2022-11-15T04:21:15;23.97;;;7.37;;
26080;SDS011;13991;51.174;4.438;2022-11-15T04:24:06;16.37;;;7.00;;
26080;SDS011;13991;51.174;4.438;2022-11-15T04:27:15;20.20;;;6.80;;
26080;SDS011;13991;51.174;4.438;2022-11-15T04:33:53;23.10;;;7.30;;
26080;SDS011;13991;51.174;4.438;2022-11-15T04:37:16;18.17;;;7.07;;
26080;SDS011;13991;51.174;4.438;2022-11-15T04:42:40;16.57;;;6.43;;
26080;SDS011;13991;51.174;4.438;2022-11-15T04:45:21;28.53;;;8.87;;
26080;SDS011;13991;51.174;4.438;2022-11-15T04:48:27;25.20;;;8.40;;
26080;SDS011;13991;51.174;4.438;2022-11-15T04:51:56;18.40;;;8.97;;
26080;SDS011;13991;51.174;4.438;2022-11-15T04:58:08;23.13;;;7.90;;
26080;SDS011;13991;51.174;4.438;2022-11-15T05:01:13;24.07;;;8.10;;
26080;SDS011;13991;51.174;4.438;2022-11-15T05:03:56;17.70;;;6.60;;
26080;SDS011;13991;51.174;4.438;2022-11-15T05:11:00;19.17;;;7.57;;
26080;SDS011;13991;51.174;4.438;2022-11-15T05:14:31;14.80;;;6.47;;
26080;SDS011;13991;51.174;4.438;2022-11-15T05:17:36;25.53;;;6.37;;
26080;SDS011;13991;51.174;4.438;2022-11-15T05:25:20;25.90;;;7.20;;
26080;SDS011;13991;51.174;4.438;2022-11-15T05:31:02;20.43;;;6.23;;
26080;SDS011;13991;51.174;4.438;2022-11-15T05:34:11;22.63;;;6.20;;
26080;SDS011;13991;51.174;4.438;2022-11-15T05:41:06;20.07;;;6.00;;
26080;SDS011;13991;51.174;4.438;2022-11-15T05:43:48;17.60;;;6.03;;
26080;SDS011;13991;51.174;4.438;2022-11-15T05:47:25;15.30;;;5.47;;
26080;SDS011;13991;51.174;4.438;2022-11-15T05:50:11;16.40;;;5.03;;
26080;SDS011;13991;51.174;4.438;2022-11-15T05:53:23;16.70;;;5.33;;
26080;SDS011;13991;51.174;4.438;2022-11-15T05:56:20;21.57;;;5.00;;
26080;SDS011;13991;51.174;4.438;2022-11-15T06:02:45;14.07;;;5.03;;
26080;SDS011;13991;51.174;4.438;2022-11-15T06:16:53;18.40;;;4.57;;
26080;SDS011;13991;51.174;4.438;2022-11-15T06:20:34;14.60;;;4.97;;
26080;SDS011;13991;51.174;4.438;2022-11-15T06:27:31;10.20;;;3.80;;
26080;SDS011;13991;51.174;4.438;2022-11-15T06:37:28;12.07;;;3.43;;
26080;SDS011;13991;51.174;4.438;2022-11-15T06:47:27;9.47;;;4.33;;
26080;SDS011;13991;51.174;4.438;2022-11-15T06:54:23;20.70;;;5.37;;
26080;SDS011;13991;51.174;4.438;2022-11-15T07:00:36;19.77;;;5.77;;
26080;SDS011;13991;51.174;4.438;2022-11-15T07:07:08;23.77;;;7.57;;
26080;SDS011;13991;51.174;4.438;2022-11-15T07:10:05;19.90;;;7.00;;
26080;SDS011;13991;51.174;4.438;2022-11-15T07:13:18;21.40;;;7.13;;
26080;SDS011;13991;51.174;4.438;2022-11-15T07:23:26;21.57;;;6.33;;
26080;SDS011;13991;51.174;4.438;2022-11-15T07:36:50;21.93;;;4.87;;
26080;SDS011;13991;51.174;4.438;2022-11-15T07:40:31;11.17;;;4.53;;
26080;SDS011;13991;51.174;4.438;2022-11-15T08:11:21;14.33;;;5.20;;
26080;SDS011;13991;51.174;4.438;2022-11-15T08:21:19;13.90;;;4.20;;
26080;SDS011;13991;51.174;4.438;2022-11-15T08:51:57;9.70;;;3.10;;
26080;SDS011;13991;51.174;4.438;2022-11-15T09:19:11;7.27;;;1.80;;
26080;SDS011;13991;51.174;4.438;2022-11-15T09:35:37;10.90;;;1.93;;
26080;SDS011;13991;51.174;4.438;2022-11-15T09:39:29;16.27;;;1.97;;
26080;SDS011;13991;51.174;4.438;2022-11-15T10:09:48;11.57;;;0.90;;
26080;SDS011;13991;51.174;4.438;2022-11-15T10:40:19;14.33;;;1.07;;
26080;SDS011;13991;51.174;4.438;2022-11-15T11:18:07;7.20;;;1.33;;
26080;SDS011;13991;51.174;4.438;2022-11-15T11:47:21;13.27;;;1.20;;
26080;SDS011;13991;51.174;4.438;2022-11-15T12:08:01;12.70;;;1.47;;
26080;SDS011;13991;51.174;4.438;2022-11-15T12:55:36;12.70;;;1.13;;
26080;SDS011;13991;51.174;4.438;2022-11-15T12:59:01;4.53;;;0.97;;
26080;SDS011;13991;51.174;4.438;2022-11-15T15:00:57;5.17;;;1.17;;
26080;SDS011;13991;51.174;4.438;2022-11-15T16:52:20;7.10;;;3.20;;
26080;SDS011;13991;51.174;4.438;2022-11-15T16:54:46;7.30;;;3.53;;
26080;SDS011;13991;51.174;4.438;2022-11-15T17:01:18;9.47;;;2.63;;
26080;SDS011;13991;51.174;4.438;2022-11-15T17:03:48;8.93;;;3.33;;
26080;SDS011;13991;51.174;4.438;2022-11-15T17:16:31;6.97;;;3.30;;
26080;SDS011;13991;51.174;4.438;2022-11-15T17:18:58;10.17;;;3.67;;
26080;SDS011;13991;51.174;4.438;2022-11-15T17:21:24;7.87;;;3.57;;
26080;SDS011;13991;51.174;4.438;2022-11-15T17:23:55;10.00;;;3.70;;
26080;SDS011;13991;51.174;4.438;2022-11-15T17:26:23;8.20;;;3.57;;
26080;SDS011;13991;51.174;4.438;2022-11-15T17:28:54;12.00;;;3.53;;
26080;SDS011;13991;51.174;4.438;2022-11-15T17:33:56;6.97;;;3.07;;
26080;SDS011;13991;51.174;4.438;2022-11-15T17:36:24;7.43;;;3.20;;
26080;SDS011;13991;51.174;4.438;2022-11-15T17:38:50;9.57;;;3.60;;
26080;SDS011;13991;51.174;4.438;2022-11-15T17:41:17;10.20;;;3.40;;
26080;SDS011;13991;51.174;4.438;2022-11-15T17:43:45;9.90;;;3.60;;
26080;SDS011;13991;51.174;4.438;2022-11-15T17:46:31;20.97;;;3.70;;
26080;SDS011;13991;51.174;4.438;2022-11-15T17:48:58;10.33;;;3.60;;
26080;SDS011;13991;51.174;4.438;2022-11-15T17:51:25;8.77;;;4.28;;
26080;SDS011;13991;51.174;4.438;2022-11-15T18:08:35;5.80;;;3.30;;
26080;SDS011;13991;51.174;4.438;2022-11-15T18:11:18;7.90;;;3.13;;
26080;SDS011;13991;51.174;4.438;2022-11-15T18:13:47;11.13;;;3.33;;
26080;SDS011;13991;51.174;4.438;2022-11-15T18:16:25;7.97;;;3.80;;
26080;SDS011;13991;51.174;4.438;2022-11-15T18:18:55;8.00;;;3.60;;
26080;SDS011;13991;51.174;4.438;2022-11-15T18:24:00;11.13;;;4.73;;
26080;SDS011;13991;51.174;4.438;2022-11-15T18:26:27;9.73;;;4.90;;
26080;SDS011;13991;51.174;4.438;2022-11-15T18:28:55;14.73;;;4.30;;
26080;SDS011;13991;51.174;4.438;2022-11-15T18:31:31;16.97;;;4.97;;
26080;SDS011;13991;51.174;4.438;2022-11-15T18:34:00;10.93;;;4.23;;
26080;SDS011;13991;51.174;4.438;2022-11-15T18:44:32;11.17;;;4.23;;
26080;SDS011;13991;51.174;4.438;2022-11-15T18:46:59;10.70;;;5.10;;
26080;SDS011;13991;51.174;4.438;2022-11-15T18:49:26;12.93;;;4.63;;
26080;SDS011;13991;51.174;4.438;2022-11-15T18:52:00;7.80;;;4.13;;
26080;SDS011;13991;51.174;4.438;2022-11-15T18:54:27;8.47;;;4.40;;
26080;SDS011;13991;51.174;4.438;2022-11-15T18:56:56;11.30;;;3.83;;
26080;SDS011;13991;51.174;4.438;2022-11-15T20:01:32;11.43;;;6.63;;
26080;SDS011;13991;51.174;4.438;2022-11-15T20:04:03;11.40;;;6.00;;
26080;SDS011;13991;51.174;4.438;2022-11-15T20:14:22;15.20;;;5.77;;
26080;SDS011;13991;51.174;4.438;2022-11-15T20:22:06;12.38;;;6.20;;
26080;SDS011;13991;51.174;4.438;2022-11-15T20:24:32;7.77;;;5.27;;
26080;SDS011;13991;51.174;4.438;2022-11-15T20:26:59;8.27;;;4.87;;
26080;SDS011;13991;51.174;4.438;2022-11-15T20:29:24;9.87;;;5.33;;
26080;SDS011;13991;51.174;4.438;2022-11-15T20:31:50;10.97;;;5.17;;
26080;SDS011;13991;51.174;4.438;2022-11-15T20:34:16;9.90;;;4.97;;
26080;SDS011;13991;51.174;4.438;2022-11-15T20:36:42;13.03;;;5.00;;
26080;SDS011;13991;51.174;4.438;2022-11-15T20:39:08;22.43;;;5.97;;
26080;SDS011;13991;51.174;4.438;2022-11-15T20:41:34;10.03;;;5.43;;
26080;SDS011;13991;51.174;4.438;2022-11-15T20:43:59;12.40;;;5.60;;
26080;SDS011;13991;51.174;4.438;2022-11-15T20:46:28;12.37;;;5.87;;
26080;SDS011;13991;51.174;4.438;2022-11-15T20:48:57;10.50;;;5.23;;
26080;SDS011;13991;51.174;4.438;2022-11-15T20:51:25;8.77;;;5.20;;
26080;SDS011;13991;51.174;4.438;2022-11-15T20:53:51;11.97;;;4.97;;
26080;SDS011;13991;51.174;4.438;2022-11-15T20:56:18;15.25;;;7.00;;
26080;SDS011;13991;51.174;4.438;2022-11-15T20:58:45;12.63;;;6.63;;
26080;SDS011;13991;51.174;4.438;2022-11-15T21:01:15;14.67;;;6.63;;
26080;SDS011;13991;51.174;4.438;2022-11-15T21:03:43;12.80;;;5.90;;
26080;SDS011;13991;51.174;4.438;2022-11-15T21:06:09;12.63;;;6.07;;
26080;SDS011;13991;51.174;4.438;2022-11-15T21:08:35;17.27;;;5.90;;
26080;SDS011;13991;51.174;4.438;2022-11-15T21:11:20;15.07;;;6.60;;
26080;SDS011;13991;51.174;4.438;2022-11-15T21:14:04;12.03;;;4.93;;
26080;SDS011;13991;51.174;4.438;2022-11-15T21:16:30;10.07;;;5.40;;
26080;SDS011;13991;51.174;4.438;2022-11-15T21:18:57;18.23;;;4.97;;
26080;SDS011;13991;51.174;4.438;2022-11-15T21:21:24;16.17;;;5.20;;
26080;SDS011;13991;51.174;4.438;2022-11-15T21:23:49;11.67;;;5.33;;
26080;SDS011;13991;51.174;4.438;2022-11-15T21:26:18;14.97;;;5.20;;
26080;SDS011;13991;51.174;4.438;2022-11-15T21:28:47;11.20;;;4.70;;
26080;SDS011;13991;51.174;4.438;2022-11-15T21:31:13;11.73;;;5.23;;
26080;SDS011;13991;51.174;4.438;2022-11-15T21:33:38;10.77;;;5.07;;
26080;SDS011;13991;51.174;4.438;2022-11-15T21:36:04;12.77;;;4.97;;
26080;SDS011;13991;51.174;4.438;2022-11-15T21:38:31;13.23;;;6.00;;
26080;SDS011;13991;51.174;4.438;2022-11-15T21:41:01;14.20;;;5.70;;
26080;SDS011;13991;51.174;4.438;2022-11-15T21:43:28;19.47;;;5.70;;
26080;SDS011;13991;51.174;4.438;2022-11-15T21:45:59;15.07;;;5.53;;
26080;SDS011;13991;51.174;4.438;2022-11-15T21:48:28;8.87;;;4.70;;
26080;SDS011;13991;51.174;4.438;2022-11-15T21:50:58;10.20;;;5.03;;
26080;SDS011;13991;51.174;4.438;2022-11-15T21:53:32;17.03;;;6.00;;
26080;SDS011;13991;51.174;4.438;2022-11-15T21:55:58;10.67;;;5.67;;
26080;SDS011;13991;51.174;4.438;2022-11-15T21:58:25;16.37;;;5.80;;
26080;SDS011;13991;51.174;4.438;2022-11-15T22:00:55;14.17;;;5.70;;
26080;SDS011;13991;51.174;4.438;2022-11-15T22:03:39;14.90;;;6.47;;
26080;SDS011;13991;51.174;4.438;2022-11-15T22:06:06;9.37;;;5.37;;
26080;SDS011;13991;51.174;4.438;2022-11-15T22:08:32;13.03;;;5.80;;
26080;SDS011;13991;51.174;4.438;2022-11-15T22:10:58;12.63;;;6.50;;
26080;SDS011;13991;51.174;4.438;2022-11-15T22:13:24;16.83;;;5.70;;
26080;SDS011;13991;51.174;4.438;2022-11-15T22:15:50;19.17;;;5.80;;
26080;SDS011;13991;51.174;4.438;2022-11-15T22:18:28;15.20;;;4.80;;
26080;SDS011;13991;51.174;4.438;2022-11-15T22:20:59;15.80;;;6.88;;
26080;SDS011;13991;51.174;4.438;2022-11-15T22:23:27;12.13;;;5.53;;
26080;SDS011;13991;51.174;4.438;2022-11-15T22:25:54;10.33;;;5.73;;
26080;SDS011;13991;51.174;4.438;2022-11-15T22:28:21;15.03;;;6.37;;
26080;SDS011;13991;51.174;4.438;2022-11-15T22:30:47;11.83;;;5.13;;
26080;SDS011;13991;51.174;4.438;2022-11-15T22:33:15;12.17;;;5.87;;
26080;SDS011;13991;51.174;4.438;2022-11-15T22:35:44;13.60;;;5.90;;
26080;SDS011;13991;51.174;4.438;2022-11-15T22:38:13;14.33;;;6.07;;
26080;SDS011;13991;51.174;4.438;2022-11-15T22:43:09;8.60;;;5.60;;
26080;SDS011;13991;51.174;4.438;2022-11-15T22:46:13;10.53;;;5.13;;
26080;SDS011;13991;51.174;4.438;2022-11-15T22:48:34;12.17;;;5.97;;
26080;SDS011;13991;51.174;4.438;2022-11-15T22:51:01;18.67;;;5.57;;
26080;SDS011;13991;51.174;4.438;2022-11-15T22:53:27;9.43;;;5.30;;
26080;SDS011;13991;51.174;4.438;2022-11-15T22:55:57;12.47;;;5.53;;
26080;SDS011;13991;51.174;4.438;2022-11-15T22:58:25;10.20;;;5.33;;
26080;SDS011;13991;51.174;4.438;2022-11-15T23:00:53;10.63;;;5.50;;
26080;SDS011;13991;51.174;4.438;2022-11-15T23:03:23;13.90;;;6.27;;
26080;SDS011;13991;51.174;4.438;2022-11-15T23:05:49;12.30;;;5.57;;
26080;SDS011;13991;51.174;4.438;2022-11-15T23:08:16;12.70;;;5.27;;
26080;SDS011;13991;51.174;4.438;2022-11-15T23:10:42;15.97;;;5.53;;
26080;SDS011;13991;51.174;4.438;2022-11-15T23:13:28;16.10;;;6.37;;
26080;SDS011;13991;51.174;4.438;2022-11-15T23:16:05;13.43;;;6.23;;
26080;SDS011;13991;51.174;4.438;2022-11-15T23:19:06;13.37;;;5.83;;
26080;SDS011;13991;51.174;4.438;2022-11-15T23:24:18;16.33;;;6.33;;
26080;SDS011;13991;51.174;4.438;2022-11-15T23:26:45;13.70;;;6.97;;
26080;SDS011;13991;51.174;4.438;2022-11-15T23:29:13;11.77;;;5.93;;
26080;SDS011;13991;51.174;4.438;2022-11-15T23:31:40;14.70;;;5.37;;
26080;SDS011;13991;51.174;4.438;2022-11-15T23:34:25;15.97;;;6.03;;
26080;SDS011;13991;51.174;4.438;2022-11-15T23:36:55;10.70;;;6.50;;
26080;SDS011;13991;51.174;4.438;2022-11-15T23:39:20;20.00;;;5.53;;
26080;SDS011;13991;51.174;4.438;2022-11-15T23:41:46;10.43;;;6.10;;
26080;SDS011;13991;51.174;4.438;2022-11-15T23:44:12;22.60;;;6.90;;
26080;SDS011;13991;51.174;4.438;2022-11-15T23:46:37;14.83;;;6.73;;
26080;SDS011;13991;51.174;4.438;2022-11-15T23:49:03;14.00;;;6.47;;
26080;SDS011;13991;51.174;4.438;2022-11-15T23:51:29;11.17;;;5.97;;
26080;SDS011;13991;51.174;4.438;2022-11-15T23:53:58;18.30;;;6.20;;
26080;SDS011;13991;51.174;4.438;2022-11-15T23:56:23;12.70;;;6.37;;
26080;SDS011;13991;51.174;4.438;2022-11-15T23:58:49;17.10;;;5.00;;
